Time;durP1;ratioP1;P1;durP2;ratioP2;P2;SDS_P1;SDS_P2;PMS_P1;PMS_P2;Temp;Humidity;BMP_temperature;BMP_pressure;BME280_temperature;BME280_humidity;BME280_pressure;Samples;Min_cycle;Max_cycle;Signal;HPM_P1;HPM_P2
2021/07/21 00:03:23;;;;;;;9.23;8.00;;;22.40;40.10;;;;;;4834553;29;20447;-80
2021/07/21 00:06:30;;;;;;;8.33;7.53;;;22.40;40.10;;;;;;4740674;29;20430;-80
2021/07/21 00:09:37;;;;;;;8.70;7.90;;;22.40;40.10;;;;;;4800887;29;20507;-80
2021/07/21 00:15:25;;;;;;;9.30;8.50;;;22.40;40.10;;;;;;4807598;29;20452;-82
2021/07/21 00:18:16;;;;;;;8.37;7.67;;;22.40;40.00;;;;;;4809886;29;20458;-81
2021/07/21 00:21:39;;;;;;;8.83;8.03;;;22.40;40.00;;;;;;4809989;29;20433;-81
2021/07/21 00:24:36;;;;;;;9.40;8.60;;;22.40;40.00;;;;;;4822622;29;20445;-80
2021/07/21 00:27:35;;;;;;;8.10;7.40;;;22.40;40.00;;;;;;4801815;29;20435;-82
2021/07/21 00:30:49;;;;;;;7.87;7.20;;;22.30;40.00;;;;;;4805227;29;20489;-82
2021/07/21 00:36:15;;;;;;;9.20;7.40;;;22.40;40.00;;;;;;4798598;29;20494;-82
2021/07/21 00:38:57;;;;;;;8.77;7.97;;;22.30;40.00;;;;;;4826062;29;20449;-81
2021/07/21 00:41:32;;;;;;;8.40;7.60;;;22.40;40.00;;;;;;4826292;29;20415;-81
2021/07/21 00:44:47;;;;;;;7.80;7.20;;;22.40;40.10;;;;;;4815879;29;20422;-81
2021/07/21 00:47:47;;;;;;;8.10;7.40;;;22.40;40.10;;;;;;4810847;29;20849;-82
2021/07/21 00:54:02;;;;;;;8.97;8.17;;;22.30;40.00;;;;;;4799480;29;20429;-82
2021/07/21 00:57:29;;;;;;;8.37;7.67;;;22.30;40.00;;;;;;4774042;30;20461;-82
2021/07/21 01:00:55;;;;;;;8.43;7.73;;;22.30;40.00;;;;;;4775059;30;20424;-82
2021/07/21 01:04:15;;;;;;;7.83;7.13;;;22.40;40.10;;;;;;4761483;30;20452;-81
2021/07/21 01:07:22;;;;;;;8.43;7.70;;;22.40;40.10;;;;;;4763520;30;20428;-82
2021/07/21 01:14:08;;;;;;;8.93;8.23;;;22.40;40.10;;;;;;4774942;30;20471;-82
2021/07/21 01:17:21;;;;;;;7.33;6.83;;;22.30;40.00;;;;;;4774828;30;20428;-83
2021/07/21 01:20:49;;;;;;;7.90;7.30;;;22.30;40.00;;;;;;4774900;30;20431;-82
2021/07/21 01:24:04;;;;;;;8.10;7.30;;;22.30;40.00;;;;;;4777907;29;20432;-82
2021/07/21 01:27:55;;;;;;;8.30;7.50;;;22.30;40.00;;;;;;4771898;30;20528;-82
2021/07/21 01:31:20;;;;;;;8.37;7.57;;;22.30;40.00;;;;;;4773870;30;20471;-82
2021/07/21 01:38:28;;;;;;;9.50;7.50;;;22.30;40.00;;;;;;4774407;30;20439;-82
2021/07/21 01:42:03;;;;;;;8.33;7.53;;;22.30;40.00;;;;;;4769892;30;20434;-79
2021/07/21 01:45:09;;;;;;;10.37;9.20;;;22.30;40.00;;;;;;4782341;29;20459;-82
2021/07/21 01:48:34;;;;;;;7.97;7.07;;;22.30;40.10;;;;;;4794751;29;20454;-82
2021/07/21 01:51:59;;;;;;;7.17;6.43;;;22.30;40.10;;;;;;4811168;29;20504;-83
2021/07/21 01:54:59;;;;;;;8.80;7.93;;;22.30;40.00;;;;;;4773639;30;20637;-83
2021/07/21 01:58:20;;;;;;;8.83;8.03;;;22.30;40.00;;;;;;4760610;30;20448;-82
2021/07/21 02:01:51;;;;;;;8.60;7.50;;;22.30;40.00;;;;;;4774005;30;20431;-81
2021/07/21 02:04:40;;;;;;;8.17;7.37;;;22.30;40.00;;;;;;4773474;30;20470;-81
2021/07/21 02:07:31;;;;;;;9.50;7.30;;;22.30;40.00;;;;;;4773198;30;20429;-82
2021/07/21 02:10:41;;;;;;;10.63;7.63;;;22.30;40.00;;;;;;4760952;30;20521;-81
2021/07/21 02:17:32;;;;;;;8.20;7.30;;;22.30;40.00;;;;;;4720063;30;21030;-82
2021/07/21 02:20:24;;;;;;;9.33;7.20;;;22.30;40.10;;;;;;4772880;30;20442;-82
2021/07/21 02:23:39;;;;;;;9.90;8.65;;;22.30;40.10;;;;;;4783320;30;20434;-81
2021/07/21 02:35:59;;;;;;;7.67;6.97;;;22.30;40.10;;;;;;4769332;30;20431;-80
2021/07/21 02:39:20;;;;;;;7.37;6.67;;;22.30;40.20;;;;;;4770509;30;20886;-82
2021/07/21 02:42:08;;;;;;;10.40;7.30;;;22.20;40.10;;;;;;4754177;30;20442;-82
2021/07/21 02:44:44;;;;;;;8.43;7.60;;;22.20;40.20;;;;;;4770222;30;20448;-80
2021/07/21 02:48:03;;;;;;;8.43;7.73;;;22.20;40.20;;;;;;4762897;30;20427;-81
2021/07/21 02:51:00;;;;;;;8.60;7.83;;;22.20;40.30;;;;;;4809850;29;20468;-80
2021/07/21 02:54:49;;;;;;;8.37;7.57;;;22.20;40.40;;;;;;4805851;29;20415;-81
2021/07/21 03:29:04;;;;;;;7.60;6.50;;;22.10;40.80;;;;;;4768014;30;20446;-81
2021/07/21 03:49:55;;;;;;;9.50;6.63;;;22.10;40.90;;;;;;4770843;30;20446;-82
2021/07/21 04:00:13;;;;;;;7.87;7.07;;;22.10;40.90;;;;;;4789630;30;20514;-83
2021/07/21 04:07:13;;;;;;;6.50;6.00;;;22.10;41.00;;;;;;4703055;30;20839;-80
2021/07/21 04:14:16;;;;;;;7.00;6.40;;;22.10;41.00;;;;;;4697038;30;20445;-80
2021/07/21 04:21:25;;;;;;;7.20;6.57;;;22.10;41.10;;;;;;4675166;30;20447;-80
2021/07/21 04:25:12;;;;;;;6.23;5.70;;;22.00;41.00;;;;;;4668411;30;20437;-81
2021/07/21 04:28:43;;;;;;;6.40;5.90;;;22.10;41.10;;;;;;4602898;31;20933;-81
2021/07/21 04:32:15;;;;;;;6.67;6.17;;;22.00;41.20;;;;;;4598994;31;20518;-82
2021/07/21 04:35:43;;;;;;;7.60;6.80;;;22.10;41.80;;;;;;4633668;30;20478;-83
2021/07/21 04:45:57;;;;;;;8.87;8.03;;;22.10;41.60;;;;;;4644104;30;20430;-83
2021/07/21 05:27:44;;;;;;;9.00;8.30;;;22.00;39.30;;;;;;5868975;23;20439;-81
2021/07/21 06:39:49;;;;;;;10.20;9.30;;;21.50;36.00;;;;;;5486439;23;20520;-81
2021/07/21 06:49:16;;;;;;;10.40;8.27;;;21.50;36.70;;;;;;4816340;29;20468;-81
2021/07/21 06:52:33;;;;;;;9.97;9.17;;;21.50;36.60;;;;;;4825587;29;20475;-81
2021/07/21 06:55:41;;;;;;;10.10;9.20;;;21.50;36.70;;;;;;4825143;29;20417;-80
2021/07/21 06:59:09;;;;;;;9.77;8.90;;;21.50;36.80;;;;;;4791184;29;20454;-83
2021/07/21 08:05:34;;;;;;;;;;;;;;;;;;;;;
2021/07/21 08:15:51;;;;;;;10.00;9.10;;;21.80;37.40;;;;;;5870780;23;20415;-80
2021/07/21 08:18:19;;;;;;;11.13;10.13;;;21.80;37.60;;;;;;4824771;29;20453;-81
2021/07/21 08:21:08;;;;;;;10.07;9.17;;;21.90;37.40;;;;;;4811911;29;20437;-82
2021/07/21 08:23:49;;;;;;;9.63;8.90;;;21.90;37.50;;;;;;4780491;29;20451;-83
2021/07/21 08:26:43;;;;;;;11.67;10.57;;;21.90;37.30;;;;;;4830343;29;20429;-82
2021/07/21 08:29:21;;;;;;;10.27;9.40;;;21.90;37.30;;;;;;4828306;29;20507;-82
2021/07/21 08:33:01;;;;;;;10.87;9.70;;;21.90;37.70;;;;;;4812144;29;20488;-82
2021/07/21 08:35:51;;;;;;;10.50;9.50;;;21.90;37.40;;;;;;4810213;29;20442;-83
2021/07/21 08:38:20;;;;;;;11.53;10.33;;;21.90;37.40;;;;;;4813539;29;20470;-80
2021/07/21 08:41:53;;;;;;;10.53;9.60;;;21.90;37.60;;;;;;4825176;29;20434;-80
2021/07/21 08:48:27;;;;;;;11.43;10.57;;;22.00;37.80;;;;;;4813458;29;20456;-80
2021/07/21 08:51:52;;;;;;;10.70;9.77;;;22.00;38.00;;;;;;4793582;29;20475;-81
2021/07/21 08:55:29;;;;;;;11.50;10.30;;;22.00;37.40;;;;;;4794982;30;20454;-82
2021/07/21 13:04:29;;;;;;;13.30;12.10;;;22.70;35.70;;;;;;4802261;29;20478;-80
2021/07/21 13:07:08;;;;;;;13.10;11.80;;;22.70;34.50;;;;;;4809405;29;20438;-80
2021/07/21 13:10:00;;;;;;;12.30;11.30;;;22.70;35.00;;;;;;4826299;29;20808;-80
2021/07/21 13:13:01;;;;;;;12.60;11.57;;;22.70;34.40;;;;;;4827717;29;21008;-82
2021/07/21 13:16:20;;;;;;;12.00;11.00;;;22.80;34.50;;;;;;4827880;29;20449;-81
2021/07/21 13:19:43;;;;;;;;;;;;;;;;;;;;;
2021/07/21 13:22:47;;;;;;;11.40;10.57;;;22.80;34.90;;;;;;4776245;30;20520;-82
2021/07/21 16:58:42;;;;;;;10.50;9.50;;;22.70;36.70;;;;;;4835037;23;20503;-80
2021/07/21 17:02:10;;;;;;;10.20;9.10;;;22.70;36.70;;;;;;4833263;29;20437;-80
2021/07/21 17:05:43;;;;;;;10.67;9.70;;;22.70;36.70;;;;;;4795233;30;20439;-80
2021/07/21 17:16:00;;;;;;;12.30;10.10;;;22.70;36.90;;;;;;4758389;30;20816;-80
2021/07/21 17:23:05;;;;;;;12.83;10.53;;;22.70;37.40;;;;;;4720742;30;20545;-81
2021/07/21 17:26:12;;;;;;;10.37;9.37;;;22.70;37.70;;;;;;4748086;30;20447;-81
2021/07/21 17:50:37;;;;;;;11.17;9.83;;;22.70;38.40;;;;;;4697264;30;20580;-81
2021/07/21 17:53:09;;;;;;;11.10;10.10;;;22.70;38.40;;;;;;4702166;30;20483;-81
2021/07/21 17:55:49;;;;;;;10.83;9.83;;;22.70;38.50;;;;;;4737941;30;20563;-81
2021/07/21 17:59:09;;;;;;;11.50;9.57;;;22.70;38.40;;;;;;4810253;29;20456;-81
2021/07/21 18:02:35;;;;;;;11.23;10.03;;;22.70;38.40;;;;;;4782375;29;20422;-81
2021/07/21 18:06:05;;;;;;;11.33;9.33;;;22.70;38.40;;;;;;4754444;30;20421;-81
2021/07/21 18:09:49;;;;;;;11.50;8.80;;;22.70;38.40;;;;;;4756657;30;20453;-81
2021/07/21 18:16:47;;;;;;;;;;;;;;;;;;;;;
2021/07/21 18:19:50;;;;;;;12.50;10.17;;;22.70;38.40;;;;;;4699493;30;20493;-81
2021/07/21 18:22:22;;;;;;;11.80;10.80;;;22.70;38.30;;;;;;4693971;30;20526;-81
2021/07/21 18:24:53;;;;;;;9.60;8.70;;;22.70;38.40;;;;;;4706563;30;20439;-81
2021/07/21 18:27:41;;;;;;;9.70;8.90;;;22.70;38.50;;;;;;4724924;30;20434;-81
2021/07/21 18:30:46;;;;;;;10.00;9.10;;;22.70;38.50;;;;;;4740680;30;20465;-81
2021/07/21 18:34:54;;;;;;;9.83;9.00;;;22.70;38.50;;;;;;4754068;30;20460;-81
2021/07/21 18:42:00;;;;;;;9.70;8.80;;;22.70;38.50;;;;;;4736263;30;20438;-81
2021/07/21 19:02:38;;;;;;;9.33;8.50;;;22.70;38.50;;;;;;4633019;31;20989;-81
2021/07/21 19:09:20;;;;;;;9.33;8.53;;;22.60;38.40;;;;;;4625613;30;20524;-81
2021/07/21 19:13:02;;;;;;;10.10;9.10;;;22.70;38.70;;;;;;4649632;30;20616;-81
2021/07/21 19:23:29;;;;;;;8.33;7.60;;;22.70;38.80;;;;;;4646127;30;20481;-81
2021/07/21 19:33:36;;;;;;;9.80;8.97;;;22.70;38.80;;;;;;4694973;30;20522;-81
2021/07/21 19:37:18;;;;;;;8.37;7.67;;;22.70;38.80;;;;;;4680845;30;21020;-81
2021/07/21 19:44:15;;;;;;;8.80;7.90;;;22.70;39.10;;;;;;4686613;30;20487;-80
2021/07/21 19:47:41;;;;;;;9.13;8.23;;;22.60;38.90;;;;;;4698017;30;20573;-80
2021/07/21 19:51:13;;;;;;;7.90;7.30;;;22.60;38.90;;;;;;4696795;30;20514;-80
2021/07/21 19:58:54;;;;;;;9.00;8.10;;;22.60;39.10;;;;;;4771025;30;20567;-80
2021/07/21 20:15:48;;;;;;;9.00;8.20;;;22.50;39.10;;;;;;4717798;30;20429;-80
2021/07/21 20:28:51;;;;;;;8.53;7.63;;;22.50;39.10;;;;;;4769506;30;20459;-81
2021/07/21 20:38:36;;;;;;;8.97;8.07;;;22.50;39.50;;;;;;4805736;29;20455;-81
2021/07/21 20:42:08;;;;;;;8.40;7.60;;;22.50;39.50;;;;;;4782474;30;20438;-81
2021/07/21 20:45:46;;;;;;;8.60;7.80;;;22.50;39.70;;;;;;4784870;30;20488;-81
2021/07/21 20:51:30;;;;;;;7.53;6.83;;;22.50;39.80;;;;;;4810936;29;20490;-81
2021/07/21 20:54:41;;;;;;;8.90;8.00;;;22.50;39.80;;;;;;4795020;29;20422;-80
2021/07/21 20:57:56;;;;;;;6.93;6.40;;;22.50;39.90;;;;;;4792426;29;20793;-81
2021/07/21 21:00:37;;;;;;;8.30;7.50;;;22.50;39.90;;;;;;4794945;29;20461;-80
2021/07/21 21:03:28;;;;;;;7.90;7.30;;;22.50;39.90;;;;;;4811583;29;20426;-81
2021/07/21 21:06:07;;;;;;;7.47;6.87;;;22.50;40.00;;;;;;4811205;29;20445;-81
2021/07/21 21:08:45;;;;;;;7.33;6.60;;;22.50;40.00;;;;;;4795248;29;20450;-80
2021/07/21 21:11:30;;;;;;;8.73;7.93;;;22.50;40.00;;;;;;4811168;29;20469;-81
2021/07/21 21:14:01;;;;;;;7.13;6.57;;;22.50;40.00;;;;;;4810437;29;20444;-80
2021/07/21 21:27:08;;;;;;;8.23;7.53;;;22.50;40.10;;;;;;4763051;30;20443;-80
2021/07/21 21:30:48;;;;;;;7.20;6.60;;;22.50;40.10;;;;;;4753095;30;20867;-80
2021/07/21 21:33:40;;;;;;;7.30;6.70;;;22.50;40.10;;;;;;4762414;30;20439;-80
2021/07/21 21:36:59;;;;;;;8.70;6.93;;;22.50;40.00;;;;;;4775845;29;20420;-80
2021/07/21 21:40:31;;;;;;;8.00;7.30;;;22.40;40.00;;;;;;4778664;29;20418;-80
2021/07/21 21:44:13;;;;;;;8.30;7.60;;;22.50;40.10;;;;;;4797598;29;20430;-80
2021/07/21 21:47:48;;;;;;;7.00;6.50;;;22.40;40.00;;;;;;4789489;30;20431;-81
2021/07/21 21:58:02;;;;;;;8.27;7.47;;;22.40;40.00;;;;;;4752998;30;20873;-81
2021/07/21 22:08:18;;;;;;;6.70;6.20;;;22.40;40.10;;;;;;4734447;30;20429;-80
2021/07/21 22:14:42;;;;;;;7.73;7.03;;;22.40;40.10;;;;;;4665731;30;20441;-81
2021/07/21 22:17:51;;;;;;;6.30;5.80;;;22.40;40.10;;;;;;4666245;30;20861;-81
2021/07/21 22:21:04;;;;;;;7.30;6.70;;;22.40;40.00;;;;;;4721871;30;20453;-80
2021/07/21 22:23:54;;;;;;;6.40;5.90;;;22.40;40.10;;;;;;4755987;30;20867;-81
2021/07/21 22:26:45;;;;;;;7.50;6.90;;;22.40;40.10;;;;;;4752774;30;20469;-81
2021/07/21 22:30:07;;;;;;;7.20;6.60;;;22.40;40.00;;;;;;4753609;30;20460;-80
2021/07/21 22:33:11;;;;;;;6.87;6.37;;;22.40;40.10;;;;;;4768336;30;20486;-81
2021/07/21 22:40:15;;;;;;;6.53;5.93;;;22.30;40.00;;;;;;4769725;30;20478;-80
2021/07/21 22:43:31;;;;;;;7.47;6.87;;;22.40;40.10;;;;;;4787610;30;20464;-80
2021/07/21 22:46:43;;;;;;;6.63;6.10;;;22.40;40.10;;;;;;4787990;29;20997;-80
2021/07/21 22:49:22;;;;;;;7.00;6.50;;;22.30;40.00;;;;;;4785535;29;20816;-80
2021/07/21 22:51:54;;;;;;;6.97;6.43;;;22.30;40.00;;;;;;4807163;29;20465;-80
2021/07/21 22:54:27;;;;;;;7.20;6.63;;;22.30;40.00;;;;;;4804523;29;20544;-81
2021/07/21 22:57:27;;;;;;;6.93;6.30;;;22.30;40.00;;;;;;4790465;29;21017;-80
2021/07/21 23:00:50;;;;;;;8.27;7.47;;;22.30;40.00;;;;;;4733510;30;20437;-80
2021/07/21 23:07:30;;;;;;;6.47;5.87;;;22.30;40.00;;;;;;4733114;30;20452;-81
2021/07/21 23:10:59;;;;;;;7.10;6.50;;;22.30;40.00;;;;;;4750557;30;20409;-80
2021/07/21 23:14:18;;;;;;;6.87;6.27;;;22.30;40.00;;;;;;4768085;30;20428;-80
2021/07/21 23:17:36;;;;;;;7.40;6.80;;;22.30;40.00;;;;;;4767796;30;20436;-80
2021/07/21 23:21:08;;;;;;;6.60;6.10;;;22.30;40.00;;;;;;4698659;30;20430;-81
2021/07/21 23:24:44;;;;;;;6.47;5.97;;;22.30;40.10;;;;;;4681313;30;20900;-80
2021/07/21 23:27:39;;;;;;;6.27;5.77;;;22.30;40.10;;;;;;4685697;30;20432;-81
2021/07/21 23:30:50;;;;;;;6.93;6.33;;;22.30;40.00;;;;;;4727481;30;20459;-81
2021/07/21 23:34:04;;;;;;;6.93;6.43;;;22.30;40.10;;;;;;4806383;29;20457;-80
2021/07/21 23:37:26;;;;;;;5.93;5.43;;;22.30;40.10;;;;;;4787398;29;20419;-80
2021/07/21 23:41:00;;;;;;;5.97;5.57;;;22.30;40.00;;;;;;4786145;29;20479;-81
2021/07/21 23:44:27;;;;;;;7.03;6.43;;;22.30;40.00;;;;;;4718641;30;20923;-81
2021/07/21 23:47:48;;;;;;;6.47;5.97;;;22.30;40.10;;;;;;4720299;30;20941;-80
2021/07/21 23:50:52;;;;;;;6.20;5.70;;;22.30;40.10;;;;;;4751325;30;20502;-80
2021/07/21 23:57:45;;;;;;;6.03;5.63;;;22.30;40.00;;;;;;4787056;29;20446;-80
